sensor_id;sensor_type;location;lat;lon;timestamp;P1;durP1;ratioP1;P2;durP2;ratioP2
44572;SDS011;31762;45.420;10.072;2024-02-04T00:04:34;59.13;;;53.22;;
44572;SDS011;31762;45.420;10.072;2024-02-04T00:09:36;55.45;;;50.15;;
44572;SDS011;31762;45.420;10.072;2024-02-04T00:14:38;57.60;;;51.70;;
44572;SDS011;31762;45.420;10.072;2024-02-04T00:19:41;57.45;;;51.65;;
44572;SDS011;31762;45.420;10.072;2024-02-04T00:24:43;62.47;;;56.60;;
44572;SDS011;31762;45.420;10.072;2024-02-04T00:29:45;58.05;;;51.88;;
44572;SDS011;31762;45.420;10.072;2024-02-04T00:34:47;59.78;;;53.67;;
44572;SDS011;31762;45.420;10.072;2024-02-04T00:39:50;60.85;;;54.70;;
44572;SDS011;31762;45.420;10.072;2024-02-04T00:44:52;59.70;;;53.50;;
44572;SDS011;31762;45.420;10.072;2024-02-04T00:49:54;59.88;;;53.42;;
44572;SDS011;31762;45.420;10.072;2024-02-04T00:54:56;61.45;;;55.47;;
44572;SDS011;31762;45.420;10.072;2024-02-04T00:59:58;61.35;;;54.97;;
44572;SDS011;31762;45.420;10.072;2024-02-04T01:05:01;59.92;;;53.83;;
44572;SDS011;31762;45.420;10.072;2024-02-04T01:10:03;64.78;;;58.58;;
44572;SDS011;31762;45.420;10.072;2024-02-04T01:15:10;59.85;;;53.75;;
44572;SDS011;31762;45.420;10.072;2024-02-04T01:20:12;59.78;;;53.63;;
44572;SDS011;31762;45.420;10.072;2024-02-04T01:25:14;65.50;;;59.25;;
44572;SDS011;31762;45.420;10.072;2024-02-04T01:30:16;57.05;;;51.17;;
44572;SDS011;31762;45.420;10.072;2024-02-04T01:35:19;64.63;;;58.30;;
44572;SDS011;31762;45.420;10.072;2024-02-04T01:40:21;65.43;;;59.00;;
44572;SDS011;31762;45.420;10.072;2024-02-04T01:45:23;62.90;;;56.65;;
44572;SDS011;31762;45.420;10.072;2024-02-04T01:50:25;59.78;;;53.50;;
44572;SDS011;31762;45.420;10.072;2024-02-04T01:55:28;60.88;;;54.67;;
44572;SDS011;31762;45.420;10.072;2024-02-04T02:00:30;63.78;;;57.40;;
44572;SDS011;31762;45.420;10.072;2024-02-04T02:05:33;62.58;;;56.13;;
44572;SDS011;31762;45.420;10.072;2024-02-04T02:10:35;62.03;;;55.55;;
44572;SDS011;31762;45.420;10.072;2024-02-04T02:15:40;61.75;;;55.15;;
44572;SDS011;31762;45.420;10.072;2024-02-04T02:25:49;64.63;;;58.17;;
44572;SDS011;31762;45.420;10.072;2024-02-04T02:30:51;61.60;;;55.03;;
44572;SDS011;31762;45.420;10.072;2024-02-04T02:35:56;58.25;;;52.38;;
44572;SDS011;31762;45.420;10.072;2024-02-04T02:40:59;56.97;;;51.05;;
44572;SDS011;31762;45.420;10.072;2024-02-04T02:46:05;64.55;;;57.97;;
44572;SDS011;31762;45.420;10.072;2024-02-04T02:51:08;59.35;;;53.60;;
44572;SDS011;31762;45.420;10.072;2024-02-04T02:56:10;64.40;;;57.92;;
44572;SDS011;31762;45.420;10.072;2024-02-04T03:01:12;61.20;;;54.55;;
44572;SDS011;31762;45.420;10.072;2024-02-04T03:06:15;59.42;;;53.25;;
44572;SDS011;31762;45.420;10.072;2024-02-04T03:11:17;65.00;;;58.88;;
44572;SDS011;31762;45.420;10.072;2024-02-04T03:16:19;60.03;;;53.92;;
44572;SDS011;31762;45.420;10.072;2024-02-04T03:21:21;59.90;;;53.67;;
44572;SDS011;31762;45.420;10.072;2024-02-04T03:26:24;58.22;;;52.35;;
44572;SDS011;31762;45.420;10.072;2024-02-04T03:31:26;59.05;;;52.92;;
44572;SDS011;31762;45.420;10.072;2024-02-04T03:36:28;59.88;;;53.85;;
44572;SDS011;31762;45.420;10.072;2024-02-04T03:41:30;59.22;;;53.35;;
44572;SDS011;31762;45.420;10.072;2024-02-04T03:46:32;61.60;;;55.20;;
44572;SDS011;31762;45.420;10.072;2024-02-04T03:51:35;63.40;;;57.33;;
44572;SDS011;31762;45.420;10.072;2024-02-04T03:56:37;66.57;;;60.30;;
44572;SDS011;31762;45.420;10.072;2024-02-04T04:01:39;60.92;;;54.78;;
44572;SDS011;31762;45.420;10.072;2024-02-04T04:06:42;58.63;;;52.40;;
44572;SDS011;31762;45.420;10.072;2024-02-04T04:11:45;59.78;;;53.45;;
44572;SDS011;31762;45.420;10.072;2024-02-04T04:16:47;58.78;;;52.67;;
44572;SDS011;31762;45.420;10.072;2024-02-04T04:21:49;60.38;;;54.15;;
44572;SDS011;31762;45.420;10.072;2024-02-04T04:26:51;59.50;;;53.35;;
44572;SDS011;31762;45.420;10.072;2024-02-04T04:31:54;66.35;;;60.00;;
44572;SDS011;31762;45.420;10.072;2024-02-04T04:36:56;61.72;;;55.60;;
44572;SDS011;31762;45.420;10.072;2024-02-04T04:41:58;63.10;;;56.80;;
44572;SDS011;31762;45.420;10.072;2024-02-04T04:47:00;59.22;;;52.88;;
44572;SDS011;31762;45.420;10.072;2024-02-04T04:52:02;62.00;;;55.70;;
44572;SDS011;31762;45.420;10.072;2024-02-04T04:57:05;60.55;;;54.60;;
44572;SDS011;31762;45.420;10.072;2024-02-04T05:02:07;59.28;;;53.17;;
44572;SDS011;31762;45.420;10.072;2024-02-04T05:07:09;59.65;;;53.60;;
44572;SDS011;31762;45.420;10.072;2024-02-04T05:12:12;61.25;;;54.90;;
44572;SDS011;31762;45.420;10.072;2024-02-04T05:17:14;60.92;;;54.75;;
44572;SDS011;31762;45.420;10.072;2024-02-04T05:22:16;58.75;;;52.97;;
44572;SDS011;31762;45.420;10.072;2024-02-04T05:27:18;60.20;;;53.90;;
44572;SDS011;31762;45.420;10.072;2024-02-04T05:32:21;64.45;;;58.22;;
44572;SDS011;31762;45.420;10.072;2024-02-04T05:37:23;61.22;;;54.65;;
44572;SDS011;31762;45.420;10.072;2024-02-04T05:42:25;61.42;;;55.45;;
44572;SDS011;31762;45.420;10.072;2024-02-04T05:47:27;60.13;;;53.88;;
44572;SDS011;31762;45.420;10.072;2024-02-04T05:52:30;66.00;;;59.58;;
44572;SDS011;31762;45.420;10.072;2024-02-04T05:57:32;62.42;;;56.03;;
44572;SDS011;31762;45.420;10.072;2024-02-04T06:02:34;61.80;;;55.22;;
44572;SDS011;31762;45.420;10.072;2024-02-04T06:07:36;60.22;;;53.85;;
44572;SDS011;31762;45.420;10.072;2024-02-04T06:12:39;63.00;;;56.50;;
44572;SDS011;31762;45.420;10.072;2024-02-04T06:17:41;60.95;;;54.90;;
44572;SDS011;31762;45.420;10.072;2024-02-04T06:22:44;63.45;;;56.72;;
44572;SDS011;31762;45.420;10.072;2024-02-04T06:27:46;59.83;;;53.47;;
44572;SDS011;31762;45.420;10.072;2024-02-04T06:32:48;60.50;;;54.55;;
44572;SDS011;31762;45.420;10.072;2024-02-04T06:37:51;60.70;;;54.28;;
44572;SDS011;31762;45.420;10.072;2024-02-04T06:42:53;61.42;;;55.33;;
44572;SDS011;31762;45.420;10.072;2024-02-04T06:47:55;62.15;;;55.78;;
44572;SDS011;31762;45.420;10.072;2024-02-04T06:52:57;57.35;;;51.40;;
44572;SDS011;31762;45.420;10.072;2024-02-04T06:57:59;59.28;;;53.30;;
44572;SDS011;31762;45.420;10.072;2024-02-04T07:03:02;57.75;;;51.78;;
44572;SDS011;31762;45.420;10.072;2024-02-04T07:08:04;57.72;;;50.47;;
44572;SDS011;31762;45.420;10.072;2024-02-04T07:13:06;63.40;;;56.33;;
44572;SDS011;31762;45.420;10.072;2024-02-04T07:18:09;55.53;;;49.72;;
44572;SDS011;31762;45.420;10.072;2024-02-04T07:23:11;58.05;;;52.33;;
44572;SDS011;31762;45.420;10.072;2024-02-04T07:28:13;59.25;;;53.33;;
44572;SDS011;31762;45.420;10.072;2024-02-04T07:33:16;57.22;;;51.50;;
44572;SDS011;31762;45.420;10.072;2024-02-04T07:38:18;58.70;;;52.72;;
44572;SDS011;31762;45.420;10.072;2024-02-04T07:43:20;57.47;;;51.65;;
44572;SDS011;31762;45.420;10.072;2024-02-04T07:48:22;60.28;;;54.20;;
44572;SDS011;31762;45.420;10.072;2024-02-04T07:53:25;55.22;;;49.63;;
44572;SDS011;31762;45.420;10.072;2024-02-04T07:58:27;56.30;;;50.67;;
44572;SDS011;31762;45.420;10.072;2024-02-04T08:03:29;59.90;;;54.30;;
44572;SDS011;31762;45.420;10.072;2024-02-04T08:08:31;60.40;;;54.67;;
44572;SDS011;31762;45.420;10.072;2024-02-04T08:13:34;59.67;;;53.65;;
44572;SDS011;31762;45.420;10.072;2024-02-04T08:18:36;60.95;;;55.17;;
44572;SDS011;31762;45.420;10.072;2024-02-04T08:23:39;59.08;;;53.17;;
44572;SDS011;31762;45.420;10.072;2024-02-04T08:28:41;59.42;;;53.78;;
44572;SDS011;31762;45.420;10.072;2024-02-04T08:33:43;61.22;;;55.38;;
44572;SDS011;31762;45.420;10.072;2024-02-04T08:38:46;57.58;;;52.03;;
44572;SDS011;31762;45.420;10.072;2024-02-04T08:43:48;56.92;;;51.35;;
44572;SDS011;31762;45.420;10.072;2024-02-04T08:48:51;64.60;;;58.45;;
44572;SDS011;31762;45.420;10.072;2024-02-04T08:53:53;65.68;;;59.35;;
44572;SDS011;31762;45.420;10.072;2024-02-04T08:58:55;68.55;;;61.75;;
44572;SDS011;31762;45.420;10.072;2024-02-04T09:03:57;65.65;;;59.28;;
44572;SDS011;31762;45.420;10.072;2024-02-04T09:09:00;60.67;;;54.65;;
44572;SDS011;31762;45.420;10.072;2024-02-04T09:14:02;64.60;;;58.17;;
44572;SDS011;31762;45.420;10.072;2024-02-04T09:19:04;63.47;;;57.10;;
44572;SDS011;31762;45.420;10.072;2024-02-04T09:24:07;60.80;;;54.70;;
44572;SDS011;31762;45.420;10.072;2024-02-04T09:29:09;59.17;;;53.33;;
44572;SDS011;31762;45.420;10.072;2024-02-04T09:34:11;67.20;;;60.42;;
44572;SDS011;31762;45.420;10.072;2024-02-04T09:39:16;62.95;;;56.55;;
44572;SDS011;31762;45.420;10.072;2024-02-04T09:44:18;68.68;;;62.05;;
44572;SDS011;31762;45.420;10.072;2024-02-04T09:49:20;68.55;;;62.05;;
44572;SDS011;31762;45.420;10.072;2024-02-04T09:54:23;72.88;;;66.07;;
44572;SDS011;31762;45.420;10.072;2024-02-04T09:59:26;75.38;;;68.13;;
44572;SDS011;31762;45.420;10.072;2024-02-04T10:04:29;79.70;;;71.97;;
44572;SDS011;31762;45.420;10.072;2024-02-04T10:09:31;65.28;;;58.72;;
44572;SDS011;31762;45.420;10.072;2024-02-04T10:14:34;81.82;;;73.53;;
44572;SDS011;31762;45.420;10.072;2024-02-04T10:19:36;66.88;;;60.33;;
44572;SDS011;31762;45.420;10.072;2024-02-04T10:24:39;72.63;;;65.70;;
44572;SDS011;31762;45.420;10.072;2024-02-04T10:29:41;74.22;;;67.20;;
44572;SDS011;31762;45.420;10.072;2024-02-04T10:34:43;72.85;;;65.65;;
44572;SDS011;31762;45.420;10.072;2024-02-04T10:39:46;75.60;;;68.50;;
44572;SDS011;31762;45.420;10.072;2024-02-04T10:44:48;63.75;;;57.42;;
44572;SDS011;31762;45.420;10.072;2024-02-04T10:49:51;68.63;;;62.22;;
44572;SDS011;31762;45.420;10.072;2024-02-04T10:54:54;68.45;;;62.15;;
44572;SDS011;31762;45.420;10.072;2024-02-04T10:59:57;64.13;;;57.87;;
44572;SDS011;31762;45.420;10.072;2024-02-04T11:05:00;71.25;;;64.55;;
44572;SDS011;31762;45.420;10.072;2024-02-04T11:10:03;72.53;;;65.63;;
44572;SDS011;31762;45.420;10.072;2024-02-04T11:15:05;71.20;;;64.47;;
44572;SDS011;31762;45.420;10.072;2024-02-04T11:30:23;67.00;;;60.47;;
44572;SDS011;31762;45.420;10.072;2024-02-04T11:35:25;65.75;;;59.15;;
44572;SDS011;31762;45.420;10.072;2024-02-04T11:40:34;70.80;;;64.05;;
44572;SDS011;31762;45.420;10.072;2024-02-04T11:45:40;66.53;;;60.00;;
44572;SDS011;31762;45.420;10.072;2024-02-04T11:50:42;71.50;;;64.72;;
44572;SDS011;31762;45.420;10.072;2024-02-04T11:55:45;70.55;;;63.75;;
44572;SDS011;31762;45.420;10.072;2024-02-04T12:00:47;69.53;;;62.78;;
44572;SDS011;31762;45.420;10.072;2024-02-04T12:05:50;66.55;;;60.08;;
44572;SDS011;31762;45.420;10.072;2024-02-04T12:10:52;71.63;;;64.95;;
44572;SDS011;31762;45.420;10.072;2024-02-04T12:15:54;70.28;;;63.72;;
44572;SDS011;31762;45.420;10.072;2024-02-04T12:20:57;63.47;;;57.50;;
44572;SDS011;31762;45.420;10.072;2024-02-04T12:25:59;62.35;;;56.22;;
44572;SDS011;31762;45.420;10.072;2024-02-04T12:31:01;62.60;;;56.50;;
44572;SDS011;31762;45.420;10.072;2024-02-04T12:36:03;61.67;;;55.50;;
44572;SDS011;31762;45.420;10.072;2024-02-04T12:41:06;64.78;;;58.70;;
44572;SDS011;31762;45.420;10.072;2024-02-04T12:46:08;62.92;;;56.72;;
44572;SDS011;31762;45.420;10.072;2024-02-04T12:51:10;62.42;;;56.58;;
44572;SDS011;31762;45.420;10.072;2024-02-04T12:56:12;59.90;;;53.97;;
44572;SDS011;31762;45.420;10.072;2024-02-04T13:01:15;63.42;;;57.63;;
44572;SDS011;31762;45.420;10.072;2024-02-04T13:06:17;62.58;;;56.50;;
44572;SDS011;31762;45.420;10.072;2024-02-04T13:11:19;59.35;;;53.78;;
44572;SDS011;31762;45.420;10.072;2024-02-04T13:16:22;60.17;;;54.55;;
44572;SDS011;31762;45.420;10.072;2024-02-04T13:21:24;55.40;;;49.90;;
44572;SDS011;31762;45.420;10.072;2024-02-04T13:26:26;58.05;;;52.75;;
44572;SDS011;31762;45.420;10.072;2024-02-04T13:31:28;53.55;;;48.20;;
44572;SDS011;31762;45.420;10.072;2024-02-04T13:36:31;53.42;;;48.20;;
44572;SDS011;31762;45.420;10.072;2024-02-04T13:41:33;58.70;;;53.20;;
44572;SDS011;31762;45.420;10.072;2024-02-04T13:46:35;57.30;;;52.00;;
44572;SDS011;31762;45.420;10.072;2024-02-04T13:51:37;56.95;;;51.20;;
44572;SDS011;31762;45.420;10.072;2024-02-04T13:56:45;52.70;;;47.72;;
44572;SDS011;31762;45.420;10.072;2024-02-04T14:01:48;56.75;;;51.15;;
44572;SDS011;31762;45.420;10.072;2024-02-04T14:06:50;56.00;;;50.92;;
44572;SDS011;31762;45.420;10.072;2024-02-04T14:11:52;52.28;;;47.28;;
44572;SDS011;31762;45.420;10.072;2024-02-04T14:16:55;55.13;;;49.85;;
44572;SDS011;31762;45.420;10.072;2024-02-04T14:21:57;57.17;;;51.88;;
44572;SDS011;31762;45.420;10.072;2024-02-04T14:26:59;54.90;;;49.38;;
44572;SDS011;31762;45.420;10.072;2024-02-04T14:32:01;53.28;;;48.38;;
44572;SDS011;31762;45.420;10.072;2024-02-04T14:37:04;49.13;;;44.13;;
44572;SDS011;31762;45.420;10.072;2024-02-04T14:42:08;53.70;;;48.75;;
44572;SDS011;31762;45.420;10.072;2024-02-04T14:47:10;53.33;;;48.40;;
44572;SDS011;31762;45.420;10.072;2024-02-04T14:52:12;48.45;;;43.63;;
44572;SDS011;31762;45.420;10.072;2024-02-04T14:57:15;47.88;;;43.28;;
44572;SDS011;31762;45.420;10.072;2024-02-04T15:02:17;48.85;;;44.35;;
44572;SDS011;31762;45.420;10.072;2024-02-04T15:07:19;49.28;;;44.47;;
44572;SDS011;31762;45.420;10.072;2024-02-04T15:12:21;52.95;;;47.90;;
44572;SDS011;31762;45.420;10.072;2024-02-04T15:17:24;49.10;;;44.67;;
44572;SDS011;31762;45.420;10.072;2024-02-04T15:22:26;50.60;;;45.80;;
44572;SDS011;31762;45.420;10.072;2024-02-04T15:27:28;48.15;;;43.45;;
44572;SDS011;31762;45.420;10.072;2024-02-04T15:32:31;47.08;;;42.38;;
44572;SDS011;31762;45.420;10.072;2024-02-04T15:37:33;45.33;;;40.83;;
44572;SDS011;31762;45.420;10.072;2024-02-04T15:42:35;44.22;;;39.95;;
44572;SDS011;31762;45.420;10.072;2024-02-04T15:47:39;45.88;;;42.08;;
44572;SDS011;31762;45.420;10.072;2024-02-04T15:52:42;46.95;;;42.55;;
44572;SDS011;31762;45.420;10.072;2024-02-04T15:57:48;42.33;;;38.03;;
44572;SDS011;31762;45.420;10.072;2024-02-04T16:02:51;44.00;;;40.00;;
44572;SDS011;31762;45.420;10.072;2024-02-04T16:07:53;43.60;;;39.55;;
44572;SDS011;31762;45.420;10.072;2024-02-04T16:12:56;44.83;;;40.63;;
44572;SDS011;31762;45.420;10.072;2024-02-04T16:17:59;40.87;;;36.77;;
44572;SDS011;31762;45.420;10.072;2024-02-04T16:23:01;43.70;;;39.78;;
44572;SDS011;31762;45.420;10.072;2024-02-04T16:28:04;40.53;;;36.45;;
44572;SDS011;31762;45.420;10.072;2024-02-04T16:33:06;40.97;;;37.38;;
44572;SDS011;31762;45.420;10.072;2024-02-04T16:38:08;39.80;;;35.90;;
44572;SDS011;31762;45.420;10.072;2024-02-04T16:43:10;39.95;;;36.20;;
44572;SDS011;31762;45.420;10.072;2024-02-04T16:48:13;41.47;;;37.30;;
44572;SDS011;31762;45.420;10.072;2024-02-04T16:53:15;40.17;;;36.28;;
44572;SDS011;31762;45.420;10.072;2024-02-04T16:58:17;38.83;;;34.90;;
44572;SDS011;31762;45.420;10.072;2024-02-04T17:03:20;37.33;;;33.88;;
44572;SDS011;31762;45.420;10.072;2024-02-04T17:08:22;42.13;;;38.05;;
44572;SDS011;31762;45.420;10.072;2024-02-04T17:13:25;33.67;;;30.50;;
44572;SDS011;31762;45.420;10.072;2024-02-04T17:18:33;39.70;;;36.25;;
44572;SDS011;31762;45.420;10.072;2024-02-04T17:23:37;39.00;;;35.40;;
44572;SDS011;31762;45.420;10.072;2024-02-04T17:28:40;35.22;;;31.90;;
44572;SDS011;31762;45.420;10.072;2024-02-04T17:33:42;39.50;;;35.78;;
44572;SDS011;31762;45.420;10.072;2024-02-04T17:38:45;40.72;;;37.13;;
44572;SDS011;31762;45.420;10.072;2024-02-04T17:43:47;37.08;;;33.75;;
44572;SDS011;31762;45.420;10.072;2024-02-04T17:48:49;37.55;;;34.05;;
44572;SDS011;31762;45.420;10.072;2024-02-04T17:53:51;38.08;;;34.13;;
44572;SDS011;31762;45.420;10.072;2024-02-04T17:58:54;41.83;;;38.13;;
44572;SDS011;31762;45.420;10.072;2024-02-04T18:03:56;38.97;;;35.40;;
44572;SDS011;31762;45.420;10.072;2024-02-04T18:08:58;33.90;;;30.50;;
44572;SDS011;31762;45.420;10.072;2024-02-04T18:14:00;33.88;;;30.38;;
44572;SDS011;31762;45.420;10.072;2024-02-04T18:19:03;36.13;;;32.63;;
44572;SDS011;31762;45.420;10.072;2024-02-04T18:24:05;37.00;;;33.72;;
44572;SDS011;31762;45.420;10.072;2024-02-04T18:29:07;36.17;;;32.63;;
44572;SDS011;31762;45.420;10.072;2024-02-04T18:34:11;36.88;;;33.00;;
44572;SDS011;31762;45.420;10.072;2024-02-04T18:39:14;39.90;;;35.97;;
44572;SDS011;31762;45.420;10.072;2024-02-04T18:44:16;36.22;;;32.50;;
44572;SDS011;31762;45.420;10.072;2024-02-04T18:49:18;39.65;;;35.65;;
44572;SDS011;31762;45.420;10.072;2024-02-04T18:54:21;38.60;;;34.90;;
44572;SDS011;31762;45.420;10.072;2024-02-04T18:59:23;36.92;;;33.55;;
44572;SDS011;31762;45.420;10.072;2024-02-04T19:04:25;35.70;;;32.20;;
44572;SDS011;31762;45.420;10.072;2024-02-04T19:09:29;35.43;;;31.80;;
44572;SDS011;31762;45.420;10.072;2024-02-04T19:14:31;37.78;;;33.65;;
44572;SDS011;31762;45.420;10.072;2024-02-04T19:19:35;36.45;;;32.88;;
44572;SDS011;31762;45.420;10.072;2024-02-04T19:24:38;37.13;;;33.55;;
44572;SDS011;31762;45.420;10.072;2024-02-04T19:29:40;34.35;;;30.95;;
44572;SDS011;31762;45.420;10.072;2024-02-04T19:34:42;37.60;;;33.92;;
44572;SDS011;31762;45.420;10.072;2024-02-04T19:39:45;34.78;;;31.30;;
44572;SDS011;31762;45.420;10.072;2024-02-04T19:44:47;35.75;;;32.50;;
44572;SDS011;31762;45.420;10.072;2024-02-04T19:49:51;34.20;;;30.33;;
44572;SDS011;31762;45.420;10.072;2024-02-04T19:54:53;34.90;;;31.50;;
44572;SDS011;31762;45.420;10.072;2024-02-04T19:59:56;34.42;;;31.08;;
44572;SDS011;31762;45.420;10.072;2024-02-04T20:04:58;36.65;;;32.90;;
44572;SDS011;31762;45.420;10.072;2024-02-04T20:10:00;37.78;;;33.90;;
44572;SDS011;31762;45.420;10.072;2024-02-04T20:15:03;35.63;;;32.35;;
44572;SDS011;31762;45.420;10.072;2024-02-04T20:20:06;35.45;;;31.90;;
44572;SDS011;31762;45.420;10.072;2024-02-04T20:25:08;36.08;;;32.42;;
44572;SDS011;31762;45.420;10.072;2024-02-04T20:30:10;35.42;;;31.77;;
44572;SDS011;31762;45.420;10.072;2024-02-04T20:35:13;35.40;;;31.90;;
44572;SDS011;31762;45.420;10.072;2024-02-04T20:40:15;38.35;;;34.70;;
44572;SDS011;31762;45.420;10.072;2024-02-04T20:45:18;36.03;;;32.45;;
44572;SDS011;31762;45.420;10.072;2024-02-04T20:50:22;34.25;;;30.90;;
44572;SDS011;31762;45.420;10.072;2024-02-04T20:55:25;34.15;;;30.75;;
44572;SDS011;31762;45.420;10.072;2024-02-04T21:00:27;30.42;;;27.63;;
44572;SDS011;31762;45.420;10.072;2024-02-04T21:05:29;33.60;;;30.40;;
44572;SDS011;31762;45.420;10.072;2024-02-04T21:10:32;32.38;;;29.30;;
44572;SDS011;31762;45.420;10.072;2024-02-04T21:15:34;29.48;;;26.58;;
44572;SDS011;31762;45.420;10.072;2024-02-04T21:20:36;32.58;;;29.52;;
44572;SDS011;31762;45.420;10.072;2024-02-04T21:25:38;29.98;;;26.98;;
44572;SDS011;31762;45.420;10.072;2024-02-04T21:30:41;28.80;;;26.05;;
44572;SDS011;31762;45.420;10.072;2024-02-04T21:35:43;33.13;;;29.92;;
44572;SDS011;31762;45.420;10.072;2024-02-04T21:40:45;30.23;;;27.27;;
44572;SDS011;31762;45.420;10.072;2024-02-04T21:45:47;30.80;;;27.77;;
44572;SDS011;31762;45.420;10.072;2024-02-04T21:50:49;31.25;;;28.15;;
44572;SDS011;31762;45.420;10.072;2024-02-04T21:55:52;30.52;;;27.63;;
44572;SDS011;31762;45.420;10.072;2024-02-04T22:00:54;30.77;;;27.90;;
44572;SDS011;31762;45.420;10.072;2024-02-04T22:05:56;28.55;;;25.70;;
44572;SDS011;31762;45.420;10.072;2024-02-04T22:10:59;31.00;;;28.20;;
44572;SDS011;31762;45.420;10.072;2024-02-04T22:16:01;32.15;;;29.48;;
44572;SDS011;31762;45.420;10.072;2024-02-04T22:21:03;29.85;;;26.90;;
44572;SDS011;31762;45.420;10.072;2024-02-04T22:26:06;32.22;;;29.20;;
44572;SDS011;31762;45.420;10.072;2024-02-04T22:31:08;34.03;;;31.10;;
44572;SDS011;31762;45.420;10.072;2024-02-04T22:36:10;34.13;;;31.25;;
44572;SDS011;31762;45.420;10.072;2024-02-04T22:41:12;31.80;;;28.70;;
44572;SDS011;31762;45.420;10.072;2024-02-04T22:46:14;33.22;;;29.92;;
44572;SDS011;31762;45.420;10.072;2024-02-04T22:51:17;30.20;;;27.17;;
44572;SDS011;31762;45.420;10.072;2024-02-04T22:56:19;29.98;;;27.17;;
44572;SDS011;31762;45.420;10.072;2024-02-04T23:01:21;32.92;;;29.90;;
44572;SDS011;31762;45.420;10.072;2024-02-04T23:06:27;31.58;;;28.60;;
44572;SDS011;31762;45.420;10.072;2024-02-04T23:11:29;31.92;;;29.15;;
44572;SDS011;31762;45.420;10.072;2024-02-04T23:16:31;33.65;;;30.67;;
44572;SDS011;31762;45.420;10.072;2024-02-04T23:21:33;33.92;;;30.48;;
44572;SDS011;31762;45.420;10.072;2024-02-04T23:26:36;29.17;;;26.45;;
44572;SDS011;31762;45.420;10.072;2024-02-04T23:31:38;30.05;;;27.50;;
44572;SDS011;31762;45.420;10.072;2024-02-04T23:36:40;31.98;;;29.05;;
44572;SDS011;31762;45.420;10.072;2024-02-04T23:41:43;29.05;;;26.25;;
44572;SDS011;31762;45.420;10.072;2024-02-04T23:46:45;30.73;;;27.83;;
44572;SDS011;31762;45.420;10.072;2024-02-04T23:51:47;34.63;;;31.30;;
44572;SDS011;31762;45.420;10.072;2024-02-04T23:56:49;33.97;;;30.83;;
